Time;durP1;ratioP1;P1;durP2;ratioP2;P2;SDS_P1;SDS_P2;PMS_P1;PMS_P2;Temp;Humidity;BMP_temperature;BMP_pressure;BME280_temperature;BME280_humidity;BME280_pressure;Samples;Min_cycle;Max_cycle;Signal;HPM_P1;HPM_P2
2021/03/01 00:03:06;;;;;;;0.63;0.63;;;;;;;;;;10204746;28;20061;-61
2021/03/01 00:08:03;;;;;;;0.70;0.70;;;;;;;;;;10232839;28;20034;-64
2021/03/01 00:13:01;;;;;;;0.40;0.40;;;;;;;;;;10252629;28;20048;-61
2021/03/01 00:17:58;;;;;;;1.37;1.07;;;;;;;;;;10254889;28;20540;-59
2021/03/01 00:22:56;;;;;;;0.20;0.20;;;;;;;;;;10254659;28;20049;-59
2021/03/01 00:27:53;;;;;;;0.83;0.67;;;;;;;;;;10241628;28;20034;-61
2021/03/01 00:32:50;;;;;;;0.93;0.87;;;;;;;;;;10259411;28;20033;-62
2021/03/01 00:37:48;;;;;;;2.20;0.90;;;;;;;;;;10246978;28;20037;-62
2021/03/01 00:42:45;;;;;;;1.30;1.03;;;;;;;;;;10257266;28;20034;-62
2021/03/01 00:47:43;;;;;;;1.13;0.73;;;;;;;;;;10266535;28;20045;-60
2021/03/01 00:52:40;;;;;;;0.63;0.63;;;;;;;;;;10257239;28;20037;-61
2021/03/01 00:57:38;;;;;;;0.20;0.20;;;;;;;;;;10245216;28;20038;-61
2021/03/01 01:02:40;;;;;;;1.08;0.88;;;;;;;;;;10255026;28;20103;-62
2021/03/01 01:07:55;;;;;;;1.45;0.95;;;;;;;;;;10271121;28;20041;-63
2021/03/01 01:12:52;;;;;;;0.30;0.30;;;;;;;;;;10258484;28;20040;-59
2021/03/01 01:17:50;;;;;;;0.90;0.53;;;;;;;;;;10244329;28;20115;-59
2021/03/01 01:22:47;;;;;;;0.40;0.40;;;;;;;;;;10254297;28;20029;-60
2021/03/01 01:27:45;;;;;;;0.57;0.57;;;;;;;;;;10258395;28;20048;-59
2021/03/01 01:32:42;;;;;;;0.30;0.30;;;;;;;;;;10257358;28;20054;-62
2021/03/01 01:37:40;;;;;;;0.37;0.37;;;;;;;;;;10248356;28;20042;-61
2021/03/01 01:42:37;;;;;;;0.20;0.20;;;;;;;;;;10243893;28;20482;-59
2021/03/01 01:47:35;;;;;;;0.57;0.53;;;;;;;;;;10244541;28;20097;-63
2021/03/01 01:52:32;;;;;;;1.23;0.50;;;;;;;;;;10260071;28;20500;-61
2021/03/01 01:57:30;;;;;;;0.80;0.77;;;;;;;;;;10231414;28;20038;-59
2021/03/01 02:02:28;;;;;;;1.25;0.73;;;;;;;;;;10256478;28;20121;-62
2021/03/01 02:07:30;;;;;;;3.07;1.93;;;;;;;;;;10246392;28;20053;-58
2021/03/01 02:12:40;;;;;;;1.23;0.85;;;;;;;;;;10262557;28;20277;-60
2021/03/01 02:17:37;;;;;;;0.40;0.40;;;;;;;;;;10266901;28;20491;-61
2021/03/01 02:22:35;;;;;;;0.47;0.47;;;;;;;;;;10252342;28;20030;-64
2021/03/01 02:27:37;;;;;;;0.65;0.65;;;;;;;;;;10267971;28;20033;-61
2021/03/01 02:32:35;;;;;;;0.85;0.52;;;;;;;;;;10248698;28;20038;-61
2021/03/01 02:37:36;;;;;;;0.22;0.22;;;;;;;;;;10264875;28;20841;-60
2021/03/01 02:42:35;;;;;;;0.95;0.75;;;;;;;;;;10286492;28;20413;-62
2021/03/01 02:47:33;;;;;;;0.80;0.60;;;;;;;;;;10251383;28;20520;-58
2021/03/01 02:52:30;;;;;;;0.37;0.33;;;;;;;;;;10248860;28;20038;-62
2021/03/01 02:57:28;;;;;;;2.50;0.40;;;;;;;;;;10264120;28;20284;-61
2021/03/01 03:02:27;;;;;;;1.00;1.00;;;;;;;;;;10267815;28;20057;-62
2021/03/01 03:07:25;;;;;;;0.90;0.60;;;;;;;;;;10253285;28;20037;-61
2021/03/01 03:12:24;;;;;;;0.60;0.55;;;;;;;;;;10250653;28;20033;-60
2021/03/01 03:17:22;;;;;;;0.30;0.30;;;;;;;;;;10254280;28;20393;-62
2021/03/01 03:22:19;;;;;;;0.43;0.43;;;;;;;;;;10267070;28;20466;-62
2021/03/01 03:27:17;;;;;;;2.53;0.40;;;;;;;;;;10256906;28;20081;-62
2021/03/01 03:32:14;;;;;;;0.43;0.43;;;;;;;;;;10262372;28;20030;-60
2021/03/01 03:37:15;;;;;;;0.73;0.37;;;;;;;;;;10260060;28;20531;-61
2021/03/01 03:42:18;;;;;;;1.05;0.82;;;;;;;;;;10230168;28;20193;-63
2021/03/01 03:47:16;;;;;;;0.43;0.30;;;;;;;;;;10211580;28;20046;-62
2021/03/01 03:52:15;;;;;;;1.53;1.07;;;;;;;;;;10202265;28;20041;-61
2021/03/01 03:57:14;;;;;;;1.60;1.45;;;;;;;;;;10246256;28;20468;-60
2021/03/01 04:02:13;;;;;;;2.50;0.95;;;;;;;;;;10215667;28;20030;-60
2021/03/01 04:07:11;;;;;;;0.75;0.63;;;;;;;;;;10217959;28;20031;-61
2021/03/01 04:12:10;;;;;;;0.77;0.50;;;;;;;;;;10212455;28;20030;-62
2021/03/01 04:17:14;;;;;;;0.40;0.40;;;;;;;;;;10267249;28;20048;-61
2021/03/01 04:22:11;;;;;;;0.35;0.35;;;;;;;;;;10270096;28;20069;-62
2021/03/01 04:27:09;;;;;;;0.67;0.53;;;;;;;;;;10239481;28;20053;-61
2021/03/01 04:32:06;;;;;;;0.50;0.50;;;;;;;;;;10220580;28;20049;-59
2021/03/01 04:37:04;;;;;;;1.63;0.47;;;;;;;;;;10249304;28;20423;-61
2021/03/01 04:42:02;;;;;;;4.10;0.60;;;;;;;;;;10279226;28;20025;-62
2021/03/01 04:47:00;;;;;;;0.87;0.40;;;;;;;;;;10296238;28;20040;-62
2021/03/01 04:51:58;;;;;;;1.10;0.77;;;;;;;;;;10278699;28;20033;-62
2021/03/01 04:56:55;;;;;;;2.20;0.95;;;;;;;;;;10280097;28;20042;-61
2021/03/01 05:01:53;;;;;;;1.20;0.67;;;;;;;;;;10271132;28;20847;-63
2021/03/01 05:06:51;;;;;;;1.50;0.70;;;;;;;;;;10268135;28;20165;-61
2021/03/01 05:11:48;;;;;;;0.50;0.50;;;;;;;;;;10270636;28;20037;-60
2021/03/01 05:16:46;;;;;;;1.83;0.67;;;;;;;;;;10267556;28;20096;-61
2021/03/01 05:21:43;;;;;;;1.50;1.20;;;;;;;;;;10276014;28;20264;-62
2021/03/01 05:26:40;;;;;;;0.67;0.40;;;;;;;;;;10235665;28;20045;-61
2021/03/01 05:31:38;;;;;;;0.70;0.53;;;;;;;;;;10246988;28;20044;-62
2021/03/01 05:36:35;;;;;;;1.77;0.90;;;;;;;;;;10248302;28;20037;-61
2021/03/01 05:41:33;;;;;;;0.77;0.53;;;;;;;;;;10238006;28;20137;-61
2021/03/01 05:46:32;;;;;;;0.53;0.53;;;;;;;;;;10259379;28;20492;-61
2021/03/01 05:51:31;;;;;;;1.35;0.80;;;;;;;;;;10235980;28;20516;-61
2021/03/01 05:56:29;;;;;;;0.93;0.88;;;;;;;;;;10247545;28;20052;-63
2021/03/01 06:01:29;;;;;;;1.92;1.10;;;;;;;;;;10260710;28;20067;-58
2021/03/01 06:06:26;;;;;;;1.50;0.98;;;;;;;;;;10252550;28;20523;-59
2021/03/01 06:11:24;;;;;;;2.07;0.80;;;;;;;;;;10253209;28;20749;-62
2021/03/01 06:16:22;;;;;;;1.03;0.70;;;;;;;;;;10243825;28;20597;-62
2021/03/01 06:21:22;;;;;;;1.13;0.57;;;;;;;;;;10242017;28;20042;-60
2021/03/01 06:26:27;;;;;;;1.65;1.02;;;;;;;;;;10250427;28;20038;-62
2021/03/01 06:31:30;;;;;;;0.73;0.70;;;;;;;;;;10257055;28;20033;-63
2021/03/01 06:36:36;;;;;;;1.52;0.70;;;;;;;;;;10254948;28;20045;-64
2021/03/01 06:41:34;;;;;;;0.90;0.70;;;;;;;;;;10251531;28;20042;-62
2021/03/01 06:46:33;;;;;;;2.20;0.77;;;;;;;;;;10248706;28;20069;-62
2021/03/01 06:51:33;;;;;;;2.30;1.08;;;;;;;;;;10236621;28;20050;-62
2021/03/01 06:56:41;;;;;;;2.47;0.82;;;;;;;;;;10238480;28;20034;-64
2021/03/01 07:01:49;;;;;;;1.20;0.70;;;;;;;;;;10247847;28;20153;-63
2021/03/01 07:06:48;;;;;;;4.18;1.42;;;;;;;;;;10241011;28;20538;-62
2021/03/01 07:11:45;;;;;;;1.05;0.93;;;;;;;;;;10268345;28;20108;-61
2021/03/01 07:16:49;;;;;;;1.77;0.93;;;;;;;;;;10266424;28;20083;-62
2021/03/01 07:21:48;;;;;;;1.85;1.00;;;;;;;;;;10267242;28;20040;-62
2021/03/01 07:26:46;;;;;;;2.05;1.00;;;;;;;;;;10254292;28;20508;-60
2021/03/01 07:31:48;;;;;;;1.33;0.70;;;;;;;;;;10272756;28;20663;-63
2021/03/01 07:36:45;;;;;;;0.65;0.60;;;;;;;;;;10271909;28;20034;-62
2021/03/01 07:41:43;;;;;;;1.70;1.13;;;;;;;;;;10261892;28;20507;-63
2021/03/01 07:46:42;;;;;;;0.77;0.77;;;;;;;;;;10237957;28;21176;-65
2021/03/01 07:51:39;;;;;;;0.47;0.38;;;;;;;;;;10218866;28;20038;-63
2021/03/01 07:56:39;;;;;;;2.10;1.00;;;;;;;;;;10221959;28;20038;-61
2021/03/01 08:01:37;;;;;;;1.33;0.55;;;;;;;;;;10243425;28;20723;-63
2021/03/01 08:06:57;;;;;;;1.15;0.47;;;;;;;;;;10219849;28;20148;-63
2021/03/01 08:11:55;;;;;;;0.65;0.57;;;;;;;;;;10243207;28;20385;-63
2021/03/01 08:17:12;;;;;;;1.10;0.53;;;;;;;;;;10236024;28;20583;-64
2021/03/01 08:22:09;;;;;;;1.42;0.60;;;;;;;;;;10261502;28;20124;-63
2021/03/01 08:27:25;;;;;;;4.23;1.30;;;;;;;;;;10268378;28;20514;-64
2021/03/01 08:32:23;;;;;;;1.08;0.73;;;;;;;;;;10260289;28;20393;-62
2021/03/01 08:37:40;;;;;;;0.67;0.63;;;;;;;;;;10263475;28;20037;-63
2021/03/01 08:42:43;;;;;;;2.72;0.70;;;;;;;;;;10242737;28;20034;-62
2021/03/01 08:47:46;;;;;;;6.32;1.55;;;;;;;;;;10261053;28;20042;-62
2021/03/01 08:52:52;;;;;;;2.30;1.27;;;;;;;;;;10252828;28;20576;-64
2021/03/01 08:57:53;;;;;;;1.23;1.08;;;;;;;;;;10259741;28;20052;-63
2021/03/01 09:03:08;;;;;;;2.15;1.42;;;;;;;;;;10242405;28;20050;-64
2021/03/01 09:08:05;;;;;;;0.80;0.47;;;;;;;;;;10248807;28;20042;-63
2021/03/01 09:13:03;;;;;;;1.83;1.00;;;;;;;;;;10263657;28;20840;-63
2021/03/01 09:18:02;;;;;;;1.75;0.95;;;;;;;;;;10251792;28;20045;-63
2021/03/01 09:23:00;;;;;;;0.40;0.40;;;;;;;;;;10261913;28;20069;-62
2021/03/01 09:27:57;;;;;;;0.33;0.30;;;;;;;;;;10261641;28;20528;-61
2021/03/01 09:33:03;;;;;;;2.53;0.60;;;;;;;;;;10259527;28;20042;-63
2021/03/01 09:38:02;;;;;;;0.57;0.57;;;;;;;;;;10256343;28;20601;-61
2021/03/01 09:43:03;;;;;;;1.55;0.75;;;;;;;;;;10259085;28;20515;-62
2021/03/01 09:48:04;;;;;;;2.05;0.93;;;;;;;;;;10262193;28;20101;-62
2021/03/01 09:53:01;;;;;;;0.80;0.38;;;;;;;;;;10259567;28;20048;-62
2021/03/01 09:57:59;;;;;;;0.87;0.80;;;;;;;;;;10257746;28;20791;-62
2021/03/01 10:03:03;;;;;;;5.30;1.47;;;;;;;;;;10254445;28;20103;-63
2021/03/01 10:08:04;;;;;;;5.47;2.00;;;;;;;;;;10258252;28;20038;-62
2021/03/01 10:13:01;;;;;;;3.42;1.55;;;;;;;;;;10261815;28;20040;-63
2021/03/01 10:18:05;;;;;;;4.90;1.10;;;;;;;;;;10260885;28;20124;-63
2021/03/01 10:23:03;;;;;;;0.77;0.57;;;;;;;;;;10248547;28;20038;-62
2021/03/01 10:28:01;;;;;;;3.00;1.10;;;;;;;;;;10258424;28;20038;-58
2021/03/01 10:33:06;;;;;;;6.80;2.17;;;;;;;;;;10258129;28;20518;-61
2021/03/01 10:38:09;;;;;;;4.10;2.10;;;;;;;;;;10267564;28;20828;-59
2021/03/01 10:43:10;;;;;;;1.63;0.85;;;;;;;;;;10271255;28;20045;-64
2021/03/01 10:48:07;;;;;;;2.83;1.98;;;;;;;;;;10288639;28;20061;-63
2021/03/01 10:53:05;;;;;;;3.23;1.70;;;;;;;;;;10252429;28;20034;-64
2021/03/01 10:58:02;;;;;;;1.77;1.10;;;;;;;;;;10275633;28;20053;-62
2021/03/01 11:03:00;;;;;;;7.93;2.87;;;;;;;;;;10256054;28;20419;-63
2021/03/01 11:07:57;;;;;;;6.43;2.60;;;;;;;;;;10275785;28;20038;-63
2021/03/01 11:12:54;;;;;;;7.57;2.60;;;;;;;;;;10268782;28;20038;-63
2021/03/01 11:17:52;;;;;;;2.77;1.20;;;;;;;;;;10272425;28;20495;-62
2021/03/01 11:22:49;;;;;;;6.83;3.10;;;;;;;;;;10266641;28;20586;-64
2021/03/01 11:27:47;;;;;;;7.22;2.55;;;;;;;;;;10283991;28;20558;-61
2021/03/01 11:32:45;;;;;;;1.13;0.80;;;;;;;;;;10259284;28;20679;-61
2021/03/01 11:37:42;;;;;;;1.03;0.63;;;;;;;;;;10276551;28;20030;-62
2021/03/01 11:42:40;;;;;;;6.37;2.50;;;;;;;;;;10257844;28;20038;-64
2021/03/01 11:47:37;;;;;;;0.50;0.50;;;;;;;;;;10224890;28;20042;-63
2021/03/01 11:52:34;;;;;;;1.60;1.10;;;;;;;;;;10246628;28;20035;-65
2021/03/01 11:57:32;;;;;;;2.07;0.97;;;;;;;;;;10230948;28;20029;-61
2021/03/01 12:02:29;;;;;;;1.00;0.83;;;;;;;;;;10262833;28;20061;-62
2021/03/01 12:07:27;;;;;;;3.53;1.00;;;;;;;;;;10247284;28;20037;-62
2021/03/01 12:12:24;;;;;;;0.67;0.50;;;;;;;;;;10248718;28;20061;-62
2021/03/01 12:17:21;;;;;;;0.40;0.40;;;;;;;;;;10262940;28;20041;-63
2021/03/01 12:22:19;;;;;;;4.07;1.37;;;;;;;;;;10239108;28;20044;-63
2021/03/01 12:27:16;;;;;;;2.87;0.77;;;;;;;;;;10269615;28;20072;-61
2021/03/01 12:32:14;;;;;;;0.27;0.27;;;;;;;;;;10254217;28;20058;-63
2021/03/01 12:37:11;;;;;;;6.00;0.90;;;;;;;;;;10243829;28;20033;-62
2021/03/01 12:42:09;;;;;;;7.37;2.10;;;;;;;;;;10248789;28;20125;-61
2021/03/01 12:47:06;;;;;;;10.63;3.50;;;;;;;;;;10257360;28;20038;-63
2021/03/01 12:52:04;;;;;;;4.33;2.73;;;;;;;;;;10257615;28;20126;-61
2021/03/01 12:57:02;;;;;;;2.50;1.98;;;;;;;;;;10257469;28;20586;-62
2021/03/01 13:01:59;;;;;;;5.03;2.00;;;;;;;;;;10221470;28;20042;-62
2021/03/01 13:06:57;;;;;;;2.47;1.20;;;;;;;;;;10242209;28;20484;-63
2021/03/01 13:11:54;;;;;;;2.50;1.50;;;;;;;;;;10261290;28;20065;-62
2021/03/01 13:16:52;;;;;;;4.67;2.40;;;;;;;;;;10257604;28;20044;-64
2021/03/01 13:21:49;;;;;;;1.40;0.87;;;;;;;;;;10248676;28;20129;-62
2021/03/01 13:26:46;;;;;;;1.50;1.27;;;;;;;;;;10239940;28;20030;-61
2021/03/01 13:31:44;;;;;;;1.37;1.27;;;;;;;;;;10262988;28;20029;-62
2021/03/01 13:36:42;;;;;;;3.23;1.97;;;;;;;;;;10237797;28;20455;-61
2021/03/01 13:41:39;;;;;;;;;;;;;;;;;;10241567;28;20041;-62
2021/03/01 13:46:37;;;;;;;7.95;3.75;;;;;;;;;;10229021;28;19972;-62
2021/03/01 13:51:34;;;;;;;4.73;1.17;;;;;;;;;;10240223;28;20053;-63
2021/03/01 13:56:32;;;;;;;0.93;0.80;;;;;;;;;;10248209;28;20034;-63
2021/03/01 14:01:31;;;;;;;2.87;1.47;;;;;;;;;;10244464;28;20077;-61
2021/03/01 14:06:28;;;;;;;3.22;0.55;;;;;;;;;;10247191;28;20045;-62
2021/03/01 14:11:26;;;;;;;1.93;1.33;;;;;;;;;;10250236;28;20407;-62
2021/03/01 14:16:23;;;;;;;3.37;1.23;;;;;;;;;;10234101;28;20034;-67
2021/03/01 14:21:21;;;;;;;3.30;0.80;;;;;;;;;;10238720;28;20054;-62
2021/03/01 14:26:18;;;;;;;1.40;1.13;;;;;;;;;;10268933;28;20034;-63
2021/03/01 14:31:16;;;;;;;0.50;0.47;;;;;;;;;;10220332;28;20035;-64
2021/03/01 14:36:13;;;;;;;1.17;0.63;;;;;;;;;;10246693;28;20042;-63
2021/03/01 14:41:11;;;;;;;0.57;0.57;;;;;;;;;;10254020;28;20037;-60
2021/03/01 14:46:08;;;;;;;1.13;1.00;;;;;;;;;;10247470;28;20053;-63
2021/03/01 14:51:06;;;;;;;4.27;1.37;;;;;;;;;;10263744;28;20046;-61
2021/03/01 14:56:03;;;;;;;0.93;0.60;;;;;;;;;;10250780;28;20041;-61
2021/03/01 15:01:01;;;;;;;2.10;1.17;;;;;;;;;;10261132;28;20038;-59
2021/03/01 15:05:59;;;;;;;1.97;1.67;;;;;;;;;;10267823;28;20053;-62
2021/03/01 15:10:58;;;;;;;1.42;0.88;;;;;;;;;;10247982;28;20044;-63
2021/03/01 15:15:55;;;;;;;;;;;;;;;;;;10255464;28;20026;-62
2021/03/01 15:20:53;;;;;;;2.50;0.80;;;;;;;;;;10278519;28;19913;-62
2021/03/01 15:25:53;;;;;;;1.27;1.13;;;;;;;;;;10256590;28;20276;-63
2021/03/01 15:30:50;;;;;;;4.75;3.10;;;;;;;;;;10261878;28;20080;-65
2021/03/01 15:35:48;;;;;;;2.60;0.97;;;;;;;;;;10268908;28;20493;-61
2021/03/01 15:40:46;;;;;;;1.03;0.97;;;;;;;;;;10261304;28;20042;-60
2021/03/01 15:45:44;;;;;;;0.82;0.68;;;;;;;;;;10273274;28;20033;-61
2021/03/01 15:50:42;;;;;;;4.00;2.40;;;;;;;;;;10253158;28;20678;-61
2021/03/01 15:55:39;;;;;;;5.00;3.05;;;;;;;;;;10254516;28;20445;-60
2021/03/01 16:00:37;;;;;;;2.53;1.33;;;;;;;;;;10243263;28;20120;-66
2021/03/01 16:05:35;;;;;;;0.85;0.68;;;;;;;;;;10208735;28;20043;-62
2021/03/01 16:10:32;;;;;;;8.13;3.63;;;;;;;;;;10216389;28;20038;-60
2021/03/01 16:15:30;;;;;;;5.97;3.77;;;;;;;;;;10219939;28;20034;-61
2021/03/01 16:20:27;;;;;;;0.73;0.73;;;;;;;;;;10224555;28;20042;-63
2021/03/01 16:25:25;;;;;;;4.70;1.50;;;;;;;;;;10222244;28;20082;-60
2021/03/01 16:30:22;;;;;;;12.03;4.87;;;;;;;;;;10230585;28;20133;-62
2021/03/01 16:35:20;;;;;;;6.47;1.83;;;;;;;;;;10215881;28;20043;-61
2021/03/01 16:40:17;;;;;;;2.00;1.10;;;;;;;;;;10232604;28;20044;-62
2021/03/01 16:45:15;;;;;;;2.00;1.13;;;;;;;;;;10211343;28;20033;-62
2021/03/01 16:50:15;;;;;;;1.38;1.13;;;;;;;;;;10229049;28;20050;-63
2021/03/01 16:55:12;;;;;;;2.22;1.25;;;;;;;;;;10229231;28;20062;-61
2021/03/01 17:00:10;;;;;;;4.95;1.55;;;;;;;;;;10210948;28;20089;-62
2021/03/01 17:05:08;;;;;;;4.43;1.57;;;;;;;;;;10211254;28;20179;-63
2021/03/01 17:10:15;;;;;;;16.20;7.13;;;;;;;;;;10215979;28;20081;-62
2021/03/01 17:15:14;;;;;;;19.80;9.48;;;;;;;;;;10204691;28;20049;-60
2021/03/01 17:20:14;;;;;;;18.98;9.45;;;;;;;;;;10211946;28;20085;-60
2021/03/01 17:25:11;;;;;;;5.68;2.03;;;;;;;;;;10232747;28;20062;-61
2021/03/01 17:30:10;;;;;;;2.07;1.77;;;;;;;;;;10250197;28;20140;-61
2021/03/01 17:35:10;;;;;;;13.68;7.35;;;;;;;;;;10230022;28;20133;-61
2021/03/01 17:40:09;;;;;;;15.95;6.50;;;;;;;;;;10205786;28;20060;-60
2021/03/01 17:45:08;;;;;;;11.82;5.32;;;;;;;;;;10206594;28;20038;-60
2021/03/01 17:50:09;;;;;;;13.93;5.80;;;;;;;;;;10231031;28;20041;-58
2021/03/01 17:55:18;;;;;;;21.67;8.32;;;;;;;;;;10208261;28;20030;-62
2021/03/01 18:00:18;;;;;;;14.20;8.27;;;;;;;;;;10208302;28;20077;-61
2021/03/01 18:05:16;;;;;;;17.08;8.10;;;;;;;;;;10239293;28;20448;-62
2021/03/01 18:10:17;;;;;;;11.80;2.60;;;;;;;;;;10252992;28;20046;-62
2021/03/01 18:15:15;;;;;;;7.82;4.30;;;;;;;;;;10224088;28;20041;-61
2021/03/01 18:20:13;;;;;;;27.08;11.63;;;;;;;;;;10246536;28;20075;-60
2021/03/01 18:25:11;;;;;;;13.43;5.10;;;;;;;;;;10256621;28;20492;-63
2021/03/01 18:30:09;;;;;;;6.60;2.50;;;;;;;;;;10233759;28;20053;-63
2021/03/01 18:35:08;;;;;;;12.00;4.40;;;;;;;;;;10228011;28;20079;-61
2021/03/01 18:40:08;;;;;;;13.30;5.22;;;;;;;;;;10251510;28;20034;-63
2021/03/01 18:45:06;;;;;;;12.95;5.20;;;;;;;;;;10234144;28;20038;-60
2021/03/01 18:50:04;;;;;;;13.60;5.25;;;;;;;;;;10248891;28;20045;-62
2021/03/01 18:55:02;;;;;;;9.50;4.10;;;;;;;;;;10248938;28;20403;-64
2021/03/01 19:00:00;;;;;;;7.75;4.82;;;;;;;;;;10241196;28;20094;-64
2021/03/01 19:04:58;;;;;;;13.05;5.75;;;;;;;;;;10263970;28;20038;-61
2021/03/01 19:09:55;;;;;;;13.53;4.50;;;;;;;;;;10247076;28;20045;-60
2021/03/01 19:14:53;;;;;;;22.13;10.03;;;;;;;;;;10239453;28;20038;-59
2021/03/01 19:19:50;;;;;;;8.77;4.80;;;;;;;;;;10248464;28;20053;-61
2021/03/01 19:24:47;;;;;;;6.90;3.50;;;;;;;;;;10249285;28;20084;-61
2021/03/01 19:29:45;;;;;;;5.90;3.13;;;;;;;;;;10240273;28;20045;-62
2021/03/01 19:34:42;;;;;;;12.17;5.97;;;;;;;;;;10270122;28;20040;-62
2021/03/01 19:39:40;;;;;;;14.30;5.80;;;;;;;;;;10246029;28;20578;-62
2021/03/01 19:44:38;;;;;;;14.13;5.57;;;;;;;;;;10252176;28;20041;-62
2021/03/01 19:49:36;;;;;;;16.65;6.55;;;;;;;;;;10236503;28;20045;-63
2021/03/01 19:54:33;;;;;;;15.35;7.28;;;;;;;;;;10252062;28;20045;-61
2021/03/01 19:59:31;;;;;;;15.40;7.00;;;;;;;;;;10249629;28;20029;-62
2021/03/01 20:04:28;;;;;;;16.10;5.63;;;;;;;;;;10220115;28;20132;-62
2021/03/01 20:09:26;;;;;;;15.73;7.20;;;;;;;;;;10254034;28;20029;-61
2021/03/01 20:14:23;;;;;;;16.33;6.60;;;;;;;;;;10247700;28;20034;-61
2021/03/01 20:19:21;;;;;;;15.17;7.30;;;;;;;;;;10265462;28;20036;-60
2021/03/01 20:24:18;;;;;;;19.50;8.13;;;;;;;;;;10251830;28;20029;-61
2021/03/01 20:29:16;;;;;;;17.43;7.40;;;;;;;;;;10252112;28;20026;-62
2021/03/01 20:34:13;;;;;;;18.57;7.90;;;;;;;;;;10242693;28;21181;-62
2021/03/01 20:39:11;;;;;;;14.80;7.20;;;;;;;;;;10251792;28;20798;-61
2021/03/01 20:44:08;;;;;;;13.70;6.97;;;;;;;;;;10241827;28;20032;-63
2021/03/01 20:49:05;;;;;;;11.90;5.87;;;;;;;;;;10248000;28;20507;-62
2021/03/01 20:54:03;;;;;;;14.57;6.90;;;;;;;;;;10252989;28;20034;-62
2021/03/01 20:59:02;;;;;;;18.30;6.93;;;;;;;;;;10257028;28;20042;-62
2021/03/01 21:04:00;;;;;;;15.23;8.02;;;;;;;;;;10191812;28;20042;-59
2021/03/01 21:08:57;;;;;;;14.90;7.87;;;;;;;;;;10232679;28;20039;-62
2021/03/01 21:13:55;;;;;;;18.70;8.50;;;;;;;;;;10230449;28;20045;-63
2021/03/01 21:18:55;;;;;;;13.67;5.93;;;;;;;;;;10229072;28;20091;-62
2021/03/01 21:23:53;;;;;;;17.70;6.88;;;;;;;;;;10231618;28;20042;-62
2021/03/01 21:28:51;;;;;;;12.82;6.65;;;;;;;;;;10225035;28;20581;-61
2021/03/01 21:33:58;;;;;;;12.15;6.80;;;;;;;;;;10230053;28;20041;-63
2021/03/01 21:38:56;;;;;;;11.23;5.40;;;;;;;;;;10237170;28;20507;-62
2021/03/01 21:43:54;;;;;;;10.63;5.17;;;;;;;;;;10248258;28;20049;-62
2021/03/01 21:48:51;;;;;;;8.30;4.47;;;;;;;;;;10230016;28;20030;-62
2021/03/01 21:53:49;;;;;;;11.83;5.23;;;;;;;;;;10267022;28;20030;-62
2021/03/01 21:58:47;;;;;;;10.63;5.28;;;;;;;;;;10237978;28;20065;-61
2021/03/01 22:03:50;;;;;;;7.47;3.97;;;;;;;;;;10246182;28;20116;-61
2021/03/01 22:08:47;;;;;;;18.20;8.50;;;;;;;;;;10246408;28;20041;-62
2021/03/01 22:13:45;;;;;;;14.90;7.18;;;;;;;;;;10262513;28;20041;-62
2021/03/01 22:18:43;;;;;;;10.23;5.73;;;;;;;;;;10244537;28;20049;-62
2021/03/01 22:23:41;;;;;;;19.83;9.80;;;;;;;;;;10249054;28;20042;-61
2021/03/01 22:28:43;;;;;;;8.77;4.50;;;;;;;;;;10229134;28;20034;-64
2021/03/01 22:33:48;;;;;;;9.80;4.78;;;;;;;;;;10242062;28;20069;-55
2021/03/01 22:38:50;;;;;;;10.40;5.40;;;;;;;;;;10215893;28;20034;-62
2021/03/01 22:43:55;;;;;;;6.97;3.42;;;;;;;;;;10241786;28;20038;-63
2021/03/01 22:48:54;;;;;;;17.35;7.82;;;;;;;;;;10244255;28;20038;-62
2021/03/01 22:53:52;;;;;;;4.55;2.88;;;;;;;;;;10255948;28;20038;-62
2021/03/01 22:58:49;;;;;;;12.23;5.60;;;;;;;;;;10242551;28;20037;-60
2021/03/01 23:03:47;;;;;;;17.70;5.57;;;;;;;;;;10240030;28;20034;-63
2021/03/01 23:08:45;;;;;;;19.93;6.07;;;;;;;;;;10242579;28;20029;-63
2021/03/01 23:13:42;;;;;;;6.93;2.60;;;;;;;;;;10233968;28;20484;-62
2021/03/01 23:18:39;;;;;;;4.90;2.43;;;;;;;;;;10247376;28;20504;-63
2021/03/01 23:23:37;;;;;;;16.23;6.43;;;;;;;;;;10268458;28;20676;-61
2021/03/01 23:28:34;;;;;;;14.57;6.07;;;;;;;;;;10249253;28;20042;-61
2021/03/01 23:33:32;;;;;;;14.53;6.30;;;;;;;;;;10238702;28;20105;-63
2021/03/01 23:38:30;;;;;;;10.03;6.40;;;;;;;;;;10238487;28;20610;-61
2021/03/01 23:43:31;;;;;;;20.35;6.15;;;;;;;;;;10241801;28;20034;-62
2021/03/01 23:48:29;;;;;;;18.02;7.10;;;;;;;;;;10246612;28;20045;-60
2021/03/01 23:53:28;;;;;;;17.27;6.10;;;;;;;;;;10265931;28;20069;-62
2021/03/01 23:58:25;;;;;;;11.57;5.95;;;;;;;;;;10260824;28;20045;-64
